Time;durP1;ratioP1;P1;durP2;ratioP2;P2;SDS_P1;SDS_P2;PMS_P1;PMS_P2;Temp;Humidity;BMP_temperature;BMP_pressure;BME280_temperature;BME280_humidity;BME280_pressure;Samples;Min_cycle;Max_cycle;Signal;HPM_P1;HPM_P2
2022/01/31 00:01:41;;;;;;;;;;;25.60;99.90;;;;;;5075209;28;19909;-72
2022/01/31 00:04:08;;;;;;;;;;;25.70;99.90;;;;;;5074971;28;19931;-74
2022/01/31 00:06:35;;;;;;;;;;;25.80;99.90;;;;;;5075365;28;19931;-74
2022/01/31 00:09:01;;;;;;;;;;;25.80;99.90;;;;;;5075491;28;19931;-74
2022/01/31 00:11:28;;;;;;;;;;;25.90;99.90;;;;;;5075163;28;19908;-73
2022/01/31 00:14:02;;;;;;;;;;;26.00;99.90;;;;;;5074814;28;20369;-73
2022/01/31 00:16:32;;;;;;;;;;;26.00;99.90;;;;;;5075117;28;19908;-74
2022/01/31 00:19:00;;;;;;;;;;;26.20;99.90;;;;;;5075043;28;19909;-73
2022/01/31 00:21:27;;;;;;;;;;;26.40;99.90;;;;;;5064599;28;19917;-73
2022/01/31 00:23:53;;;;;;;;;;;26.60;99.90;;;;;;5054537;28;19988;-73
2022/01/31 00:26:20;;;;;;;;;;;26.70;99.90;;;;;;5054739;28;20003;-73
2022/01/31 00:28:47;;;;;;;;;;;26.80;99.90;;;;;;5054723;28;20012;-73
2022/01/31 00:31:13;;;;;;;;;;;26.90;99.90;;;;;;5054588;28;20035;-74
2022/01/31 00:33:40;;;;;;;;;;;26.90;99.90;;;;;;5054525;28;19962;-74
2022/01/31 00:36:07;;;;;;;;;;;27.00;99.90;;;;;;5054573;28;19920;-73
2022/01/31 00:38:34;;;;;;;;;;;26.90;99.90;;;;;;5054885;28;20456;-73
2022/01/31 00:41:01;;;;;;;;;;;26.90;99.90;;;;;;5054500;28;19916;-73
2022/01/31 00:43:28;;;;;;;;;;;26.80;99.90;;;;;;5054527;28;20391;-79
2022/01/31 00:46:03;;;;;;;;;;;26.80;99.90;;;;;;5054274;28;20015;-75
2022/01/31 00:48:34;;;;;;;;;;;26.90;99.90;;;;;;5054508;28;19920;-75
2022/01/31 00:51:00;;;;;;;;;;;27.00;99.90;;;;;;5054463;28;20079;-76
2022/01/31 00:53:27;;;;;;;;;;;27.00;99.90;;;;;;5054447;28;20379;-78
2022/01/31 00:55:54;;;;;;;;;;;27.30;99.90;;;;;;5053852;28;20364;-79
2022/01/31 00:58:20;;;;;;;;;;;27.60;99.90;;;;;;5054137;28;19912;-75
2022/01/31 01:00:47;;;;;;;;;;;27.80;99.90;;;;;;5054138;28;20271;-77
2022/01/31 01:03:14;;;;;;;;;;;28.10;99.90;;;;;;5054029;28;19971;-75
2022/01/31 01:05:40;;;;;;;;;;;28.40;99.90;;;;;;5054539;28;19928;-77
2022/01/31 01:08:07;;;;;;;;;;;29.00;99.90;;;;;;5054203;28;20416;-75
2022/01/31 01:10:34;;;;;;;;;;;29.40;99.90;;;;;;5054226;28;19909;-75
2022/01/31 01:13:01;;;;;;;;;;;29.70;99.90;;;;;;5054232;28;19932;-77
2022/01/31 01:15:27;;;;;;;;;;;29.90;99.90;;;;;;5054259;28;19916;-74
2022/01/31 01:17:54;;;;;;;;;;;29.90;99.90;;;;;;5054006;28;19913;-77
2022/01/31 01:20:21;;;;;;;;;;;30.50;99.90;;;;;;5054091;28;20290;-74
2022/01/31 01:22:48;;;;;;;;;;;30.30;99.90;;;;;;5053846;28;19921;-75
2022/01/31 01:25:15;;;;;;;;;;;29.90;99.90;;;;;;5054191;28;20298;-76
2022/01/31 01:27:43;;;;;;;;;;;30.00;99.90;;;;;;5053470;28;20454;-76
2022/01/31 01:30:11;;;;;;;;;;;30.00;99.90;;;;;;5053786;28;19912;-75
2022/01/31 01:32:49;;;;;;;;;;;30.40;99.90;;;;;;5053868;28;19944;-79
2022/01/31 01:35:16;;;;;;;;;;;30.60;99.90;;;;;;5054005;28;19959;-74
2022/01/31 01:37:43;;;;;;;;;;;30.90;99.90;;;;;;5053698;28;19909;-76
2022/01/31 01:40:10;;;;;;;;;;;30.20;99.90;;;;;;5053314;28;19939;-78
2022/01/31 01:42:37;;;;;;;;;;;30.00;99.90;;;;;;5053248;28;19912;-73
2022/01/31 01:45:04;;;;;;;;;;;30.10;99.90;;;;;;5053742;28;19917;-76
2022/01/31 01:47:31;;;;;;;;;;;30.10;99.90;;;;;;5053573;28;20440;-71
2022/01/31 01:49:57;;;;;;;;;;;30.10;99.90;;;;;;5053328;28;19915;-75
2022/01/31 01:52:24;;;;;;;;;;;30.20;99.90;;;;;;5053449;28;19909;-72
2022/01/31 01:54:51;;;;;;;;;;;30.50;99.90;;;;;;5053500;28;19908;-75
2022/01/31 01:57:19;;;;;;;;;;;30.50;99.90;;;;;;5053275;28;19912;-76
2022/01/31 01:59:47;;;;;;;;;;;30.60;99.90;;;;;;5052882;28;19916;-77
2022/01/31 02:02:13;;;;;;;;;;;30.20;99.90;;;;;;5053129;28;19983;-78
2022/01/31 02:04:41;;;;;;;;;;;30.10;99.90;;;;;;5053249;28;19916;-76
2022/01/31 02:07:09;;;;;;;;;;;29.80;99.90;;;;;;5052983;28;19978;-77
2022/01/31 02:09:42;;;;;;;;;;;29.30;99.90;;;;;;5052621;28;19912;-79
2022/01/31 02:12:09;;;;;;;;;;;28.80;99.90;;;;;;5052655;28;19955;-78
2022/01/31 02:14:36;;;;;;;;;;;28.50;99.90;;;;;;5052981;28;19970;-78
2022/01/31 02:17:02;;;;;;;;;;;28.50;99.90;;;;;;5052777;28;19908;-79
2022/01/31 02:19:29;;;;;;;;;;;28.40;99.90;;;;;;5052797;28;20378;-78
2022/01/31 02:21:56;;;;;;;;;;;28.50;99.90;;;;;;5052377;28;19921;-76
2022/01/31 02:24:23;;;;;;;;;;;28.50;99.90;;;;;;5052596;28;19912;-79
2022/01/31 02:26:49;;;;;;;;;;;28.40;99.90;;;;;;5052857;28;19920;-79
2022/01/31 02:29:16;;;;;;;;;;;28.50;99.90;;;;;;5052579;28;19995;-77
2022/01/31 02:31:44;;;;;;;;;;;28.60;99.90;;;;;;5052602;28;19959;-79
2022/01/31 02:34:11;;;;;;;;;;;28.50;99.90;;;;;;5052013;28;20000;-79
2022/01/31 02:36:38;;;;;;;;;;;28.50;99.90;;;;;;5052574;28;20223;-78
2022/01/31 02:39:05;;;;;;;;;;;28.60;99.90;;;;;;5051777;28;19952;-79
2022/01/31 02:41:32;;;;;;;;;;;28.40;99.90;;;;;;5052373;28;19943;-78
2022/01/31 02:44:00;;;;;;;;;;;28.40;99.90;;;;;;5052193;28;19984;-79
2022/01/31 02:46:27;;;;;;;;;;;28.40;99.90;;;;;;5052548;28;19913;-76
2022/01/31 02:48:56;;;;;;;;;;;28.20;99.90;;;;;;5052376;28;19996;-79
2022/01/31 02:51:25;;;;;;;;;;;28.10;99.90;;;;;;5052261;28;19951;-78
2022/01/31 02:53:52;;;;;;;;;;;28.20;99.90;;;;;;5052149;28;19912;-79
2022/01/31 02:56:19;;;;;;;;;;;28.30;99.90;;;;;;5052336;28;20275;-79
2022/01/31 02:58:46;;;;;;;;;;;28.40;99.90;;;;;;5052228;28;19967;-79
2022/01/31 03:01:14;;;;;;;;;;;28.40;99.90;;;;;;5052372;28;19909;-78
2022/01/31 03:03:41;;;;;;;;;;;28.30;99.90;;;;;;5052175;28;20007;-78
2022/01/31 03:06:08;;;;;;;;;;;28.20;99.90;;;;;;5052036;28;20283;-79
2022/01/31 03:08:35;;;;;;;;;;;28.20;99.90;;;;;;5052546;28;19912;-79
2022/01/31 03:11:01;;;;;;;;;;;28.20;99.90;;;;;;5052252;28;20359;-79
2022/01/31 03:13:28;;;;;;;;;;;28.10;99.90;;;;;;5052192;28;19913;-78
2022/01/31 03:15:56;;;;;;;;;;;28.00;99.90;;;;;;5051782;28;20427;-77
2022/01/31 03:18:23;;;;;;;;;;;27.80;99.90;;;;;;5052127;28;19909;-79
2022/01/31 03:20:49;;;;;;;;;;;27.90;99.90;;;;;;5051956;28;20343;-79
2022/01/31 03:23:16;;;;;;;;;;;27.90;99.90;;;;;;5052178;28;19999;-77
2022/01/31 03:25:43;;;;;;;;;;;27.90;99.90;;;;;;5051680;28;20275;-78
2022/01/31 03:28:09;;;;;;;;;;;28.00;99.90;;;;;;5051879;28;19909;-77
2022/01/31 03:30:36;;;;;;;;;;;28.00;99.90;;;;;;5052222;28;19915;-78
2022/01/31 03:33:03;;;;;;;;;;;28.00;99.90;;;;;;5052102;28;19908;-77
2022/01/31 03:35:29;;;;;;;;;;;28.00;99.90;;;;;;5052008;28;19913;-77
2022/01/31 03:37:56;;;;;;;;;;;28.00;99.90;;;;;;5051946;28;19909;-77
2022/01/31 03:40:23;;;;;;;;;;;28.00;99.90;;;;;;5051665;28;20258;-78
2022/01/31 03:42:50;;;;;;;;;;;27.90;99.90;;;;;;5051940;28;19963;-79
2022/01/31 03:45:17;;;;;;;;;;;27.90;99.90;;;;;;5051745;28;20013;-76
2022/01/31 03:47:45;;;;;;;;;;;27.90;99.90;;;;;;5083830;28;20387;-77
2022/01/31 03:50:13;;;;;;;;;;;27.70;99.90;;;;;;5053287;28;19916;-78
2022/01/31 03:52:40;;;;;;;;;;;27.80;99.90;;;;;;5055725;28;19909;-78
2022/01/31 03:55:07;;;;;;;;;;;27.80;99.90;;;;;;5055369;28;20356;-77
2022/01/31 03:57:33;;;;;;;;;;;27.80;99.90;;;;;;5055541;28;20367;-78
2022/01/31 04:00:01;;;;;;;;;;;27.80;99.90;;;;;;5087439;28;20334;-78
2022/01/31 04:02:28;;;;;;;;;;;27.90;99.90;;;;;;5055471;28;19916;-77
2022/01/31 04:04:54;;;;;;;;;;;27.70;99.90;;;;;;5054932;28;20332;-79
2022/01/31 04:07:21;;;;;;;;;;;27.80;99.90;;;;;;5055240;28;19955;-74
2022/01/31 04:09:48;;;;;;;;;;;27.90;99.90;;;;;;5054896;28;19909;-77
2022/01/31 04:12:14;;;;;;;;;;;27.80;99.90;;;;;;5055375;28;20333;-78
2022/01/31 04:14:41;;;;;;;;;;;27.70;99.90;;;;;;5055219;28;19909;-75
2022/01/31 04:17:10;;;;;;;;;;;27.70;99.90;;;;;;5055118;28;20079;-77
2022/01/31 04:19:38;;;;;;;;;;;27.80;99.90;;;;;;5055077;28;20012;-78
2022/01/31 04:22:10;;;;;;;;;;;27.80;99.90;;;;;;5054400;28;19927;-77
2022/01/31 04:24:40;;;;;;;;;;;27.80;99.90;;;;;;5054652;28;19917;-76
2022/01/31 04:27:06;;;;;;;;;;;27.80;99.90;;;;;;5054931;28;19955;-78
2022/01/31 04:29:36;;;;;;;;;;;27.80;99.90;;;;;;5054975;28;19908;-78
2022/01/31 04:32:02;;;;;;;;;;;27.90;99.90;;;;;;5054699;28;19908;-78
2022/01/31 04:34:31;;;;;;;;;;;27.80;99.90;;;;;;5054988;28;19951;-78
2022/01/31 04:37:00;;;;;;;;;;;27.60;99.90;;;;;;5054755;28;19912;-77
2022/01/31 04:39:28;;;;;;;;;;;27.70;99.90;;;;;;5054518;28;19924;-78
2022/01/31 04:41:56;;;;;;;;;;;27.60;99.90;;;;;;5054353;28;19940;-77
2022/01/31 04:44:22;;;;;;;;;;;27.50;99.90;;;;;;5054552;28;19960;-75
2022/01/31 04:46:51;;;;;;;;;;;27.40;99.90;;;;;;5054712;28;19912;-77
2022/01/31 04:49:19;;;;;;;;;;;27.50;99.90;;;;;;5054562;28;19919;-78
2022/01/31 04:51:45;;;;;;;;;;;27.50;99.90;;;;;;5054310;28;19908;-72
2022/01/31 04:54:12;;;;;;;;;;;27.50;99.90;;;;;;5054258;28;19909;-78
2022/01/31 05:00:28;;;;;;;;;;;27.20;99.90;;;;;;5108876;27;20379;-78
2022/01/31 05:02:55;;;;;;;;;;;27.20;99.90;;;;;;5110338;28;19916;-79
2022/01/31 05:05:21;;;;;;;;;;;27.20;99.90;;;;;;5110313;28;19923;-78
2022/01/31 05:07:51;;;;;;;;;;;27.30;99.90;;;;;;5109814;28;19934;-78
2022/01/31 05:10:18;;;;;;;;;;;27.30;99.90;;;;;;5109314;28;19916;-78
2022/01/31 05:12:44;;;;;;;;;;;27.50;99.90;;;;;;5109235;28;20383;-79
2022/01/31 05:15:11;;;;;;;;;;;27.50;99.90;;;;;;5109978;28;20374;-79
2022/01/31 05:17:38;;;;;;;;;;;27.50;99.90;;;;;;5110163;28;19919;-78
2022/01/31 05:20:05;;;;;;;;;;;27.50;99.90;;;;;;5110273;28;19988;-79
2022/01/31 05:22:32;;;;;;;;;;;27.50;99.90;;;;;;5112210;28;19908;-77
2022/01/31 05:24:59;;;;;;;;;;;27.50;99.90;;;;;;5109841;28;20393;-71
2022/01/31 05:27:25;;;;;;;;;;;27.30;99.90;;;;;;5106766;28;19919;-75
2022/01/31 05:29:52;;;;;;;;;;;27.20;99.90;;;;;;5108972;28;20007;-78
2022/01/31 05:32:19;;;;;;;;;;;27.10;99.90;;;;;;5109818;28;19915;-79
2022/01/31 05:34:45;;;;;;;;;;;27.10;99.90;;;;;;5109343;28;19908;-78
2022/01/31 05:37:12;;;;;;;;;;;27.20;99.90;;;;;;5109422;28;19912;-76
2022/01/31 05:39:39;;;;;;;;;;;27.10;99.90;;;;;;5108945;28;19920;-76
2022/01/31 05:42:06;;;;;;;;;;;26.90;99.90;;;;;;5109192;28;19912;-76
2022/01/31 05:44:33;;;;;;;;;;;26.90;99.90;;;;;;5115088;28;19912;-77
2022/01/31 05:47:00;;;;;;;;;;;26.90;99.90;;;;;;5114019;28;19995;-77
2022/01/31 05:49:27;;;;;;;;;;;27.00;99.90;;;;;;5119406;27;19916;-73
2022/01/31 05:51:57;;;;;;;;;;;27.00;99.90;;;;;;5116439;28;20002;-75
2022/01/31 05:54:24;;;;;;;;;;;27.00;99.90;;;;;;5116839;27;20424;-74
2022/01/31 05:56:51;;;;;;;;;;;27.00;99.90;;;;;;5121269;27;19993;-76
2022/01/31 05:59:18;;;;;;;;;;;27.00;99.90;;;;;;5126765;27;19988;-78
2022/01/31 06:01:44;;;;;;;;;;;27.00;99.90;;;;;;5127100;27;19915;-78
2022/01/31 06:04:11;;;;;;;;;;;26.90;99.90;;;;;;5117384;27;19926;-76
2022/01/31 06:06:38;;;;;;;;;;;26.90;99.90;;;;;;5106300;28;19912;-73
2022/01/31 06:09:05;;;;;;;;;;;27.00;99.90;;;;;;5106162;28;19912;-77
2022/01/31 06:11:34;;;;;;;;;;;26.90;99.90;;;;;;5094755;28;19908;-78
2022/01/31 06:14:01;;;;;;;;;;;26.80;99.90;;;;;;5093168;28;19912;-78
2022/01/31 06:16:29;;;;;;;;;;;26.80;99.90;;;;;;5095757;28;20023;-77
2022/01/31 06:18:56;;;;;;;;;;;26.80;99.90;;;;;;5102859;28;19924;-75
2022/01/31 06:21:23;;;;;;;;;;;26.80;99.90;;;;;;5103021;28;19908;-74
2022/01/31 06:23:49;;;;;;;;;;;26.80;99.90;;;;;;5100794;28;20397;-75
2022/01/31 06:26:16;;;;;;;;;;;26.80;99.90;;;;;;5093061;28;19908;-77
2022/01/31 06:28:43;;;;;;;;;;;26.80;99.90;;;;;;5092672;28;19915;-77
2022/01/31 06:31:10;;;;;;;;;;;26.90;99.90;;;;;;5092425;28;20053;-77
2022/01/31 06:33:36;;;;;;;;;;;26.80;99.90;;;;;;5092492;28;19955;-78
2022/01/31 06:36:03;;;;;;;;;;;26.70;99.90;;;;;;5092352;28;19919;-78
2022/01/31 06:38:30;;;;;;;;;;;26.70;99.90;;;;;;5092508;28;19917;-78
2022/01/31 06:40:56;;;;;;;;;;;26.60;99.90;;;;;;5091991;28;19912;-77
2022/01/31 06:43:23;;;;;;;;;;;26.70;99.90;;;;;;5091130;28;19994;-75
2022/01/31 06:45:50;;;;;;;;;;;26.70;99.90;;;;;;5091023;28;19908;-80
2022/01/31 06:48:17;;;;;;;;;;;26.80;99.90;;;;;;5091355;28;19908;-78
2022/01/31 06:50:43;;;;;;;;;;;26.70;99.90;;;;;;5091777;28;20019;-74
2022/01/31 06:53:12;;;;;;;;;;;26.70;99.90;;;;;;5091884;28;20014;-77
2022/01/31 06:55:39;;;;;;;;;;;26.70;99.90;;;;;;5091878;28;19995;-78
2022/01/31 06:58:06;;;;;;;;;;;26.60;99.90;;;;;;5091646;28;20008;-77
2022/01/31 07:00:32;;;;;;;;;;;26.50;99.90;;;;;;5073468;28;19909;-77
2022/01/31 07:03:05;;;;;;;;;;;26.60;99.90;;;;;;5072028;28;19916;-77
2022/01/31 07:05:31;;;;;;;;;;;26.50;99.90;;;;;;5071884;28;19912;-77
2022/01/31 07:07:58;;;;;;;;;;;26.50;99.90;;;;;;5071647;28;19924;-76
2022/01/31 07:10:25;;;;;;;;;;;26.40;99.90;;;;;;5071310;28;20441;-76
2022/01/31 07:12:53;;;;;;;;;;;26.40;99.90;;;;;;5071357;28;19912;-78
2022/01/31 07:15:20;;;;;;;;;;;26.40;99.90;;;;;;5071818;28;19912;-78
2022/01/31 07:17:47;;;;;;;;;;;26.40;99.90;;;;;;5071390;28;19920;-76
2022/01/31 07:20:38;;;;;;;;;;;26.40;99.90;;;;;;5071190;28;19927;-77
2022/01/31 07:23:07;;;;;;;;;;;26.40;99.90;;;;;;5069569;28;19908;-78
2022/01/31 07:25:37;;;;;;;;;;;26.40;99.90;;;;;;5070892;28;20029;-77
2022/01/31 07:28:07;;;;;;;;;;;26.30;99.90;;;;;;5071438;28;20031;-74
2022/01/31 07:30:34;;;;;;;;;;;26.30;99.90;;;;;;5071430;28;20342;-76
2022/01/31 07:33:01;;;;;;;;;;;26.30;99.90;;;;;;5071711;28;19940;-76
2022/01/31 07:35:31;;;;;;;;;;;26.30;99.90;;;;;;5071470;28;19912;-76
2022/01/31 07:37:58;;;;;;;;;;;26.30;99.90;;;;;;5101186;27;19924;-76
2022/01/31 07:40:24;;;;;;;;;;;26.30;99.90;;;;;;5071128;28;19916;-77
2022/01/31 07:42:51;;;;;;;;;;;26.30;99.90;;;;;;5069745;28;19908;-75
2022/01/31 07:45:18;;;;;;;;;;;26.30;99.90;;;;;;5070740;28;19966;-76
2022/01/31 07:47:44;;;;;;;;;;;26.30;99.90;;;;;;5071121;28;19908;-76
2022/01/31 07:50:13;;;;;;;;;;;26.20;99.90;;;;;;5071011;28;20160;-76
2022/01/31 07:52:40;;;;;;;;;;;26.20;99.90;;;;;;5070477;28;20367;-77
2022/01/31 07:55:07;;;;;;;;;;;26.10;99.90;;;;;;5071134;28;19908;-77
2022/01/31 07:57:34;;;;;;;;;;;26.00;99.90;;;;;;5071035;28;20409;-76
2022/01/31 08:00:02;;;;;;;;;;;26.00;99.90;;;;;;5069993;28;19920;-78
2022/01/31 08:02:28;;;;;;;;;;;26.00;99.90;;;;;;5070913;28;20597;-77
2022/01/31 08:04:55;;;;;;;;;;;26.00;99.90;;;;;;5070544;28;19916;-76
2022/01/31 08:07:22;;;;;;;;;;;25.90;99.90;;;;;;5072907;28;19931;-78
2022/01/31 08:09:49;;;;;;;;;;;25.80;99.90;;;;;;5072730;28;19909;-78
2022/01/31 08:12:16;;;;;;;;;;;25.70;99.90;;;;;;5072967;28;19917;-77
2022/01/31 08:14:44;;;;;;;;;;;25.70;99.90;;;;;;5071974;28;19908;-76
2022/01/31 08:17:11;;;;;;;;;;;25.70;99.90;;;;;;5072647;28;19916;-77
2022/01/31 08:19:37;;;;;;;;;;;25.70;99.90;;;;;;5072384;28;19920;-74
2022/01/31 08:22:04;;;;;;;;;;;25.70;99.90;;;;;;5072429;28;19909;-75
2022/01/31 08:24:31;;;;;;;;;;;25.60;99.90;;;;;;5072618;28;20376;-77
2022/01/31 08:26:57;;;;;;;;;;;25.50;99.90;;;;;;5075006;28;19924;-76
2022/01/31 08:29:36;;;;;;;;;;;25.50;99.90;;;;;;5081792;28;20356;-78
2022/01/31 08:32:08;;;;;;;;;;;25.50;99.90;;;;;;5072482;28;19962;-78
2022/01/31 08:37:20;;;;;;;;;;;25.50;99.90;;;;;;5072606;28;20007;-78
2022/01/31 08:39:47;;;;;;;;;;;25.50;99.90;;;;;;5072279;28;19917;-77
2022/01/31 08:42:13;;;;;;;;;;;25.50;99.90;;;;;;5072514;28;19909;-78
2022/01/31 08:44:40;;;;;;;;;;;25.40;99.90;;;;;;5072366;28;19916;-79
2022/01/31 08:47:07;;;;;;;;;;;25.40;99.90;;;;;;5072519;28;19962;-78
2022/01/31 08:49:36;;;;;;;;;;;25.40;99.90;;;;;;5072544;28;19908;-77
2022/01/31 08:52:04;;;;;;;;;;;25.30;99.90;;;;;;5072137;28;19953;-78
2022/01/31 08:54:30;;;;;;;;;;;25.40;99.90;;;;;;5072305;28;20274;-78
2022/01/31 08:56:57;;;;;;;;;;;25.30;99.90;;;;;;5071172;28;19958;-78
2022/01/31 08:59:26;;;;;;;;;;;25.40;99.90;;;;;;5072130;28;19927;-77
2022/01/31 09:02:06;;;;;;;;;;;25.40;99.90;;;;;;5072091;28;19972;-77
2022/01/31 09:04:41;;;;;;;;;;;25.40;99.90;;;;;;5072845;28;19909;-78
2022/01/31 09:07:07;;;;;;;;;;;25.40;99.90;;;;;;5072112;28;19919;-78
2022/01/31 09:09:34;;;;;;;;;;;25.30;99.90;;;;;;5072330;28;19916;-77
2022/01/31 09:12:02;;;;;;;;;;;25.30;99.90;;;;;;5072107;28;19931;-77
2022/01/31 09:14:29;;;;;;;;;;;25.30;99.90;;;;;;5070971;28;19909;-78
2022/01/31 09:16:56;;;;;;;;;;;25.20;99.90;;;;;;5072347;28;20741;-77
2022/01/31 09:19:23;;;;;;;;;;;25.20;99.90;;;;;;5072129;28;19961;-76
2022/01/31 09:21:50;;;;;;;;;;;25.20;99.90;;;;;;5072444;28;19908;-78
2022/01/31 09:24:16;;;;;;;;;;;25.10;99.90;;;;;;5072036;28;19909;-75
2022/01/31 09:26:43;;;;;;;;;;;25.20;99.90;;;;;;5071908;28;19978;-77
2022/01/31 09:29:11;;;;;;;;;;;25.10;99.90;;;;;;5072121;28;19908;-73
2022/01/31 09:31:38;;;;;;;;;;;25.10;99.90;;;;;;5072262;28;20375;-77
2022/01/31 09:34:06;;;;;;;;;;;25.00;99.90;;;;;;5072037;28;19908;-77
2022/01/31 09:36:33;;;;;;;;;;;25.00;99.90;;;;;;5071801;28;20003;-78
2022/01/31 09:39:00;;;;;;;;;;;25.10;99.90;;;;;;5071583;28;20715;-78
2022/01/31 09:41:29;;;;;;;;;;;25.10;99.90;;;;;;5071954;28;19959;-78
2022/01/31 09:48:56;;;;;;;;;;;25.00;99.90;;;;;;5075679;28;19909;-74
2022/01/31 09:51:24;;;;;;;;;;;25.00;99.90;;;;;;5075569;28;20007;-77
2022/01/31 09:53:51;;;;;;;;;;;25.00;99.90;;;;;;5075154;28;20017;-77
2022/01/31 09:59:05;;;;;;;;;;;25.00;99.90;;;;;;5075273;28;20437;-77
2022/01/31 10:01:43;;;;;;;;;;;25.00;99.90;;;;;;5074674;28;20388;-76
2022/01/31 10:04:17;;;;;;;;;;;24.90;99.90;;;;;;5075172;28;19915;-77
2022/01/31 10:06:45;;;;;;;;;;;24.90;99.90;;;;;;5075305;28;19909;-76
2022/01/31 10:09:17;;;;;;;;;;;24.90;99.90;;;;;;5075361;28;19915;-76
2022/01/31 10:11:53;;;;;;;;;;;25.00;99.90;;;;;;5075261;28;20004;-77
2022/01/31 10:17:09;;;;;;;;;;;24.90;99.90;;;;;;5074641;28;20370;-77
2022/01/31 10:19:42;;;;;;;;;;;24.90;99.90;;;;;;5074956;28;20305;-76
2022/01/31 10:22:10;;;;;;;;;;;24.90;99.90;;;;;;5074705;28;19916;-76
2022/01/31 10:24:37;;;;;;;;;;;24.80;99.90;;;;;;5074732;28;19977;-77
2022/01/31 10:27:07;;;;;;;;;;;24.80;99.90;;;;;;5074921;28;20479;-76
2022/01/31 10:29:34;;;;;;;;;;;24.80;99.90;;;;;;5074951;28;19909;-76
2022/01/31 10:32:10;;;;;;;;;;;24.80;99.90;;;;;;5074034;28;19961;-77
2022/01/31 10:34:39;;;;;;;;;;;24.80;99.90;;;;;;5074717;28;19908;-76
2022/01/31 10:37:10;;;;;;;;;;;24.70;99.90;;;;;;5074404;28;19974;-76
2022/01/31 10:51:03;;;;;;;;;;;24.80;99.90;;;;;;5074817;28;20013;-78
2022/01/31 10:54:01;;;;;;;;;;;24.80;99.90;;;;;;5074299;28;19908;-78
2022/01/31 10:56:39;;;;;;;;;;;24.80;99.90;;;;;;5066373;28;19912;-76
2022/01/31 10:59:11;;;;;;;;;;;24.90;99.90;;;;;;5074053;28;20357;-78
2022/01/31 11:01:38;;;;;;;;;;;24.90;99.90;;;;;;5073821;28;19963;-79
2022/01/31 11:04:07;;;;;;;;;;;24.90;99.90;;;;;;5073900;28;19909;-78
2022/01/31 11:06:34;;;;;;;;;;;24.90;99.90;;;;;;5074264;28;19915;-78
2022/01/31 11:09:03;;;;;;;;;;;25.00;99.90;;;;;;5074116;28;19912;-77
2022/01/31 11:11:30;;;;;;;;;;;25.00;99.90;;;;;;5074159;28;19915;-78
2022/01/31 11:13:57;;;;;;;;;;;25.00;99.90;;;;;;5106454;28;19954;-77
2022/01/31 11:16:25;;;;;;;;;;;25.00;99.90;;;;;;5106252;28;19908;-78
2022/01/31 11:18:53;;;;;;;;;;;25.00;99.90;;;;;;5073442;28;19917;-78
2022/01/31 11:21:24;;;;;;;;;;;25.00;99.90;;;;;;5073798;28;19909;-75
2022/01/31 11:23:52;;;;;;;;;;;25.00;99.90;;;;;;5073717;28;19984;-78
2022/01/31 11:29:05;;;;;;;;;;;25.00;99.90;;;;;;5074198;28;19915;-78
2022/01/31 11:31:32;;;;;;;;;;;25.00;99.90;;;;;;5073601;28;19951;-79
2022/01/31 11:33:58;;;;;;;;;;;25.10;99.90;;;;;;5073235;28;19909;-78
2022/01/31 11:36:25;;;;;;;;;;;25.10;99.90;;;;;;5073556;28;20007;-78
2022/01/31 11:38:52;;;;;;;;;;;25.00;99.90;;;;;;5073495;28;19920;-77
2022/01/31 11:41:19;;;;;;;;;;;25.00;99.90;;;;;;5073555;28;19912;-78
2022/01/31 11:43:54;;;;;;;;;;;25.00;99.90;;;;;;5073314;28;19913;-79
2022/01/31 11:46:26;;;;;;;;;;;25.10;99.90;;;;;;5073308;28;19956;-78
2022/01/31 11:48:53;;;;;;;;;;;25.00;99.90;;;;;;5073399;28;19909;-77
2022/01/31 11:51:20;;;;;;;;;;;25.00;99.90;;;;;;5073041;28;19944;-78
2022/01/31 11:53:47;;;;;;;;;;;25.00;99.90;;;;;;5073045;28;20421;-77
2022/01/31 11:59:00;;;;;;;;;;;24.90;99.90;;;;;;5073162;28;20370;-76
2022/01/31 12:01:28;;;;;;;;;;;24.90;99.90;;;;;;5072646;28;20385;-78
2022/01/31 12:03:58;;;;;;;;;;;24.90;99.90;;;;;;5072836;28;20001;-78
2022/01/31 12:06:26;;;;;;;;;;;25.00;99.90;;;;;;5073037;28;19952;-77
2022/01/31 12:08:53;;;;;;;;;;;24.90;99.90;;;;;;5072623;28;20003;-75
2022/01/31 12:14:12;;;;;;;;;;;24.90;99.90;;;;;;5072848;28;19914;-77
2022/01/31 12:16:58;;;;;;;;;;;24.80;99.90;;;;;;5072918;28;19909;-77
2022/01/31 12:22:11;;;;;;;;;;;24.70;99.90;;;;;;5072543;28;19908;-75
2022/01/31 12:27:29;;;;;;;;;;;24.70;99.90;;;;;;5072791;28;20015;-76
2022/01/31 12:29:57;;;;;;;;;;;24.70;99.90;;;;;;5072564;28;20279;-77
2022/01/31 12:32:25;;;;;;;;;;;24.70;99.90;;;;;;5072755;28;19908;-78
2022/01/31 12:35:00;;;;;;;;;;;24.70;99.90;;;;;;5072798;28;20347;-77
2022/01/31 12:37:34;;;;;;;;;;;24.70;99.90;;;;;;5072655;28;19919;-78
2022/01/31 12:40:11;;;;;;;;;;;24.60;99.90;;;;;;5072346;28;20373;-78
2022/01/31 12:42:56;;;;;;;;;;;24.60;99.90;;;;;;5072884;28;19919;-78
2022/01/31 12:45:31;;;;;;;;;;;24.60;99.90;;;;;;5072691;28;19908;-78
2022/01/31 12:48:07;;;;;;;;;;;24.60;99.90;;;;;;5072486;28;19913;-78
2022/01/31 12:50:35;;;;;;;;;;;24.60;99.90;;;;;;5072567;28;19913;-78
2022/01/31 12:53:05;;;;;;;;;;;24.60;99.90;;;;;;5072476;28;20278;-77
2022/01/31 12:55:35;;;;;;;;;;;24.60;99.90;;;;;;5072657;28;19919;-78
2022/01/31 12:58:03;;;;;;;;;;;24.60;99.90;;;;;;5072330;28;19920;-77
2022/01/31 13:03:38;;;;;;;;;;;24.60;99.90;;;;;;5072957;28;20354;-77
2022/01/31 13:06:23;;;;;;;;;;;24.50;99.90;;;;;;5072564;28;20390;-76
2022/01/31 13:08:49;;;;;;;;;;;24.50;99.90;;;;;;5074849;28;20002;-72
2022/01/31 13:11:17;;;;;;;;;;;24.60;99.90;;;;;;5071462;28;19916;-77
2022/01/31 13:13:44;;;;;;;;;;;24.60;99.90;;;;;;5072889;28;19952;-76
2022/01/31 13:16:12;;;;;;;;;;;24.60;99.90;;;;;;5072384;28;20359;-77
2022/01/31 13:18:39;;;;;;;;;;;24.60;99.90;;;;;;5072213;28;20044;-77
2022/01/31 13:21:09;;;;;;;;;;;24.70;99.90;;;;;;5073078;28;20316;-74
2022/01/31 13:23:38;;;;;;;;;;;24.60;99.90;;;;;;5076473;28;19908;-75
2022/01/31 13:26:06;;;;;;;;;;;24.70;99.90;;;;;;5076165;28;19912;-73
2022/01/31 13:28:33;;;;;;;;;;;24.70;99.90;;;;;;5076207;28;19962;-76
2022/01/31 13:31:04;;;;;;;;;;;24.60;99.90;;;;;;5076118;28;20305;-74
2022/01/31 13:33:30;;;;;;;;;;;24.60;99.90;;;;;;5076095;28;19991;-77
2022/01/31 13:36:03;;;;;;;;;;;24.60;99.90;;;;;;5075749;28;19977;-76
2022/01/31 13:38:30;;;;;;;;;;;24.60;99.90;;;;;;5075900;28;19916;-78
2022/01/31 13:40:57;;;;;;;;;;;24.60;99.90;;;;;;5075869;28;19912;-73
2022/01/31 13:43:33;;;;;;;;;;;24.60;99.90;;;;;;5075836;28;19922;-73
2022/01/31 13:48:53;;;;;;;;;;;24.60;99.90;;;;;;5075775;28;19913;-73
2022/01/31 13:51:46;;;;;;;;;;;24.60;99.90;;;;;;5075843;28;19916;-73
2022/01/31 13:54:17;;;;;;;;;;;24.50;99.90;;;;;;5075783;28;19915;-78
2022/01/31 13:56:50;;;;;;;;;;;24.50;99.90;;;;;;5075548;28;19912;-72
2022/01/31 13:59:17;;;;;;;;;;;24.50;99.90;;;;;;5075156;28;20330;-77
2022/01/31 14:01:45;;;;;;;;;;;24.50;99.90;;;;;;5075477;28;19916;-77
2022/01/31 14:04:13;;;;;;;;;;;24.50;99.90;;;;;;5075351;28;19954;-78
2022/01/31 14:06:40;;;;;;;;;;;24.50;99.90;;;;;;5075395;28;19909;-79
2022/01/31 14:09:09;;;;;;;;;;;24.40;99.90;;;;;;5075418;28;20286;-79
2022/01/31 14:11:36;;;;;;;;;;;24.40;99.90;;;;;;5075332;28;19908;-79
2022/01/31 14:14:03;;;;;;;;;;;24.40;99.90;;;;;;5074923;28;19913;-78
2022/01/31 14:16:32;;;;;;;;;;;24.40;99.90;;;;;;5075172;28;19909;-75
2022/01/31 14:19:02;;;;;;;;;;;24.40;99.90;;;;;;5075238;28;19928;-73
2022/01/31 14:21:30;;;;;;;;;;;24.30;99.90;;;;;;5075037;28;19916;-76
2022/01/31 14:23:59;;;;;;;;;;;24.20;99.90;;;;;;5074940;28;19916;-77
2022/01/31 14:26:37;;;;;;;;;;;24.20;99.90;;;;;;5075037;28;19908;-74
2022/01/31 14:29:12;;;;;;;;;;;24.10;99.90;;;;;;5107435;28;19948;-77
2022/01/31 14:31:41;;;;;;;;;;;24.20;99.90;;;;;;5074337;28;20007;-74
2022/01/31 14:34:10;;;;;;;;;;;24.10;99.90;;;;;;5074601;28;19979;-78
2022/01/31 14:36:38;;;;;;;;;;;24.20;99.90;;;;;;5074487;28;19915;-76
2022/01/31 14:39:28;;;;;;;;;;;24.20;99.90;;;;;;5074672;28;19970;-78
2022/01/31 14:47:47;;;;;;;;;;;24.20;99.90;;;;;;5074701;28;19916;-73
2022/01/31 14:50:15;;;;;;;;;;;24.20;99.90;;;;;;5074426;28;20012;-73
2022/01/31 14:52:42;;;;;;;;;;;24.20;99.90;;;;;;5074386;28;19938;-72
2022/01/31 14:55:10;;;;;;;;;;;24.20;99.90;;;;;;5074432;28;19912;-75
2022/01/31 14:57:37;;;;;;;;;;;24.20;99.90;;;;;;5074412;28;19927;-78
2022/01/31 15:00:05;;;;;;;;;;;24.20;99.90;;;;;;5074131;28;19927;-76
2022/01/31 15:02:32;;;;;;;;;;;24.10;99.90;;;;;;5074471;28;19908;-78
2022/01/31 15:05:06;;;;;;;;;;;24.10;99.90;;;;;;5074329;28;19958;-78
2022/01/31 15:07:33;;;;;;;;;;;24.10;99.90;;;;;;5074435;28;20011;-77
2022/01/31 15:10:00;;;;;;;;;;;24.20;99.90;;;;;;5073796;28;19955;-72
2022/01/31 15:12:26;;;;;;;;;;;24.20;99.90;;;;;;5074111;28;20340;-72
2022/01/31 15:14:53;;;;;;;;;;;24.20;99.90;;;;;;5073991;28;19909;-72
2022/01/31 15:17:21;;;;;;;;;;;24.20;99.90;;;;;;5074069;28;19959;-72